sensor_id;sensor_type;location;lat;lon;timestamp;P1;durP1;ratioP1;P2;durP2;ratioP2
79493;SDS011;68951;53.130;18.104;2023-03-31T00:00:45;5.90;;;3.20;;
79493;SDS011;68951;53.130;18.104;2023-03-31T00:03:13;6.40;;;2.70;;
79493;SDS011;68951;53.130;18.104;2023-03-31T00:05:47;6.10;;;3.20;;
79493;SDS011;68951;53.130;18.104;2023-03-31T00:08:14;6.10;;;2.90;;
79493;SDS011;68951;53.130;18.104;2023-03-31T00:10:44;7.20;;;3.20;;
79493;SDS011;68951;53.130;18.104;2023-03-31T00:13:12;6.70;;;3.60;;
79493;SDS011;68951;53.130;18.104;2023-03-31T00:15:39;6.40;;;3.10;;
79493;SDS011;68951;53.130;18.104;2023-03-31T00:18:06;5.60;;;3.00;;
79493;SDS011;68951;53.130;18.104;2023-03-31T00:20:33;6.60;;;3.40;;
79493;SDS011;68951;53.130;18.104;2023-03-31T00:23:03;5.90;;;3.20;;
79493;SDS011;68951;53.130;18.104;2023-03-31T00:25:39;6.30;;;3.50;;
79493;SDS011;68951;53.130;18.104;2023-03-31T00:28:07;5.70;;;2.80;;
79493;SDS011;68951;53.130;18.104;2023-03-31T00:30:33;5.80;;;2.70;;
79493;SDS011;68951;53.130;18.104;2023-03-31T00:33:00;6.70;;;2.80;;
79493;SDS011;68951;53.130;18.104;2023-03-31T00:35:28;5.60;;;3.30;;
79493;SDS011;68951;53.130;18.104;2023-03-31T00:37:55;5.80;;;3.20;;
79493;SDS011;68951;53.130;18.104;2023-03-31T00:40:23;6.50;;;3.00;;
79493;SDS011;68951;53.130;18.104;2023-03-31T00:42:50;6.50;;;3.10;;
79493;SDS011;68951;53.130;18.104;2023-03-31T00:45:21;6.10;;;2.90;;
79493;SDS011;68951;53.130;18.104;2023-03-31T00:48:04;6.00;;;2.90;;
79493;SDS011;68951;53.130;18.104;2023-03-31T00:50:49;6.00;;;2.70;;
79493;SDS011;68951;53.130;18.104;2023-03-31T00:53:25;6.50;;;3.20;;
79493;SDS011;68951;53.130;18.104;2023-03-31T00:56:00;5.80;;;3.00;;
79493;SDS011;68951;53.130;18.104;2023-03-31T00:58:32;5.50;;;2.50;;
79493;SDS011;68951;53.130;18.104;2023-03-31T01:01:00;5.70;;;2.80;;
79493;SDS011;68951;53.130;18.104;2023-03-31T01:03:30;6.50;;;2.80;;
79493;SDS011;68951;53.130;18.104;2023-03-31T01:06:04;6.10;;;3.00;;
79493;SDS011;68951;53.130;18.104;2023-03-31T01:08:32;6.10;;;3.10;;
79493;SDS011;68951;53.130;18.104;2023-03-31T01:11:04;5.80;;;3.00;;
79493;SDS011;68951;53.130;18.104;2023-03-31T01:13:35;5.60;;;2.90;;
79493;SDS011;68951;53.130;18.104;2023-03-31T01:16:03;5.50;;;2.90;;
79493;SDS011;68951;53.130;18.104;2023-03-31T01:18:31;5.60;;;3.00;;
79493;SDS011;68951;53.130;18.104;2023-03-31T01:24:42;5.50;;;2.80;;
79493;SDS011;68951;53.130;18.104;2023-03-31T01:27:36;6.00;;;3.10;;
79493;SDS011;68951;53.130;18.104;2023-03-31T01:42:52;5.40;;;3.00;;
79493;SDS011;68951;53.130;18.104;2023-03-31T01:48:15;6.50;;;3.20;;
79493;SDS011;68951;53.130;18.104;2023-03-31T01:50:58;7.20;;;3.30;;
79493;SDS011;68951;53.130;18.104;2023-03-31T01:56:24;5.90;;;2.90;;
79493;SDS011;68951;53.130;18.104;2023-03-31T02:02:18;4.80;;;2.70;;
79493;SDS011;68951;53.130;18.104;2023-03-31T02:04:55;5.50;;;2.70;;
79493;SDS011;68951;53.130;18.104;2023-03-31T02:07:51;5.70;;;2.70;;
79493;SDS011;68951;53.130;18.104;2023-03-31T02:10:23;6.50;;;2.90;;
79493;SDS011;68951;53.130;18.104;2023-03-31T02:12:52;5.40;;;2.80;;
79493;SDS011;68951;53.130;18.104;2023-03-31T02:15:27;6.50;;;2.70;;
79493;SDS011;68951;53.130;18.104;2023-03-31T02:18:01;5.40;;;2.50;;
79493;SDS011;68951;53.130;18.104;2023-03-31T02:20:31;5.10;;;2.90;;
79493;SDS011;68951;53.130;18.104;2023-03-31T02:22:59;5.90;;;3.00;;
79493;SDS011;68951;53.130;18.104;2023-03-31T02:25:35;6.00;;;3.00;;
79493;SDS011;68951;53.130;18.104;2023-03-31T02:28:08;6.20;;;2.80;;
79493;SDS011;68951;53.130;18.104;2023-03-31T02:30:47;5.30;;;2.70;;
79493;SDS011;68951;53.130;18.104;2023-03-31T02:33:35;6.10;;;2.90;;
79493;SDS011;68951;53.130;18.104;2023-03-31T02:36:03;5.70;;;2.80;;
79493;SDS011;68951;53.130;18.104;2023-03-31T02:38:35;6.20;;;2.90;;
79493;SDS011;68951;53.130;18.104;2023-03-31T02:41:08;5.20;;;2.60;;
79493;SDS011;68951;53.130;18.104;2023-03-31T02:43:35;6.40;;;2.50;;
79493;SDS011;68951;53.130;18.104;2023-03-31T02:46:02;6.20;;;2.80;;
79493;SDS011;68951;53.130;18.104;2023-03-31T02:48:36;5.90;;;2.90;;
79493;SDS011;68951;53.130;18.104;2023-03-31T03:04:59;5.20;;;2.50;;
79493;SDS011;68951;53.130;18.104;2023-03-31T03:07:35;5.00;;;2.50;;
79493;SDS011;68951;53.130;18.104;2023-03-31T03:16:47;5.70;;;2.70;;
79493;SDS011;68951;53.130;18.104;2023-03-31T03:19:21;5.10;;;2.60;;
79493;SDS011;68951;53.130;18.104;2023-03-31T03:21:49;5.20;;;2.40;;
79493;SDS011;68951;53.130;18.104;2023-03-31T03:24:16;4.80;;;2.20;;
79493;SDS011;68951;53.130;18.104;2023-03-31T03:26:44;5.70;;;2.60;;
79493;SDS011;68951;53.130;18.104;2023-03-31T03:29:11;4.80;;;2.60;;
79493;SDS011;68951;53.130;18.104;2023-03-31T03:31:41;5.00;;;2.30;;
79493;SDS011;68951;53.130;18.104;2023-03-31T03:34:08;5.70;;;2.60;;
79493;SDS011;68951;53.130;18.104;2023-03-31T03:36:36;5.90;;;2.50;;
79493;SDS011;68951;53.130;18.104;2023-03-31T03:39:06;5.50;;;2.70;;
79493;SDS011;68951;53.130;18.104;2023-03-31T03:41:34;6.10;;;2.70;;
79493;SDS011;68951;53.130;18.104;2023-03-31T03:44:01;5.40;;;2.50;;
79493;SDS011;68951;53.130;18.104;2023-03-31T03:46:28;5.10;;;2.50;;
79493;SDS011;68951;53.130;18.104;2023-03-31T03:48:55;4.80;;;2.40;;
79493;SDS011;68951;53.130;18.104;2023-03-31T03:51:22;5.10;;;2.50;;
79493;SDS011;68951;53.130;18.104;2023-03-31T03:53:49;4.60;;;2.50;;
79493;SDS011;68951;53.130;18.104;2023-03-31T03:56:16;4.50;;;2.60;;
79493;SDS011;68951;53.130;18.104;2023-03-31T03:58:43;5.50;;;2.30;;
79493;SDS011;68951;53.130;18.104;2023-03-31T04:01:09;4.80;;;2.50;;
79493;SDS011;68951;53.130;18.104;2023-03-31T04:03:36;5.50;;;2.70;;
79493;SDS011;68951;53.130;18.104;2023-03-31T04:13:15;4.80;;;2.40;;
79493;SDS011;68951;53.130;18.104;2023-03-31T04:15:43;4.70;;;2.30;;
79493;SDS011;68951;53.130;18.104;2023-03-31T04:18:11;4.70;;;2.40;;
79493;SDS011;68951;53.130;18.104;2023-03-31T04:20:52;4.70;;;2.00;;
79493;SDS011;68951;53.130;18.104;2023-03-31T04:23:33;4.20;;;2.10;;
79493;SDS011;68951;53.130;18.104;2023-03-31T04:26:08;5.40;;;2.00;;
79493;SDS011;68951;53.130;18.104;2023-03-31T04:28:36;4.40;;;2.10;;
79493;SDS011;68951;53.130;18.104;2023-03-31T04:31:04;5.50;;;1.90;;
79493;SDS011;68951;53.130;18.104;2023-03-31T04:33:31;5.00;;;2.10;;
79493;SDS011;68951;53.130;18.104;2023-03-31T04:36:05;5.70;;;2.10;;
79493;SDS011;68951;53.130;18.104;2023-03-31T04:38:44;5.50;;;2.10;;
79493;SDS011;68951;53.130;18.104;2023-03-31T04:41:13;5.70;;;2.20;;
79493;SDS011;68951;53.130;18.104;2023-03-31T04:43:40;5.30;;;2.40;;
79493;SDS011;68951;53.130;18.104;2023-03-31T04:46:08;4.70;;;2.30;;
79493;SDS011;68951;53.130;18.104;2023-03-31T04:48:35;5.30;;;2.30;;
79493;SDS011;68951;53.130;18.104;2023-03-31T04:51:02;4.90;;;2.10;;
79493;SDS011;68951;53.130;18.104;2023-03-31T04:53:29;4.90;;;2.20;;
79493;SDS011;68951;53.130;18.104;2023-03-31T04:55:56;6.00;;;2.30;;
79493;SDS011;68951;53.130;18.104;2023-03-31T04:58:23;6.50;;;2.10;;
79493;SDS011;68951;53.130;18.104;2023-03-31T05:00:51;5.50;;;2.10;;
79493;SDS011;68951;53.130;18.104;2023-03-31T05:03:19;5.00;;;2.00;;
79493;SDS011;68951;53.130;18.104;2023-03-31T05:05:46;4.90;;;1.90;;
79493;SDS011;68951;53.130;18.104;2023-03-31T05:08:13;4.20;;;1.90;;
79493;SDS011;68951;53.130;18.104;2023-03-31T05:10:40;5.40;;;2.00;;
79493;SDS011;68951;53.130;18.104;2023-03-31T05:13:09;4.30;;;1.90;;
79493;SDS011;68951;53.130;18.104;2023-03-31T05:15:39;4.60;;;2.20;;
79493;SDS011;68951;53.130;18.104;2023-03-31T05:18:07;4.50;;;1.50;;
79493;SDS011;68951;53.130;18.104;2023-03-31T05:20:34;4.20;;;1.90;;
79493;SDS011;68951;53.130;18.104;2023-03-31T05:23:01;4.40;;;1.90;;
79493;SDS011;68951;53.130;18.104;2023-03-31T05:25:27;4.40;;;1.80;;
79493;SDS011;68951;53.130;18.104;2023-03-31T05:27:59;4.30;;;1.90;;
79493;SDS011;68951;53.130;18.104;2023-03-31T05:30:27;4.60;;;1.70;;
79493;SDS011;68951;53.130;18.104;2023-03-31T05:32:55;4.90;;;1.90;;
79493;SDS011;68951;53.130;18.104;2023-03-31T05:35:22;5.10;;;2.30;;
79493;SDS011;68951;53.130;18.104;2023-03-31T05:37:49;4.50;;;1.80;;
79493;SDS011;68951;53.130;18.104;2023-03-31T05:40:16;4.60;;;2.10;;
79493;SDS011;68951;53.130;18.104;2023-03-31T05:42:43;4.50;;;1.80;;
79493;SDS011;68951;53.130;18.104;2023-03-31T05:45:11;4.80;;;2.20;;
79493;SDS011;68951;53.130;18.104;2023-03-31T05:47:38;4.40;;;2.00;;
79493;SDS011;68951;53.130;18.104;2023-03-31T05:50:06;4.60;;;2.10;;
79493;SDS011;68951;53.130;18.104;2023-03-31T05:52:34;4.90;;;1.90;;
79493;SDS011;68951;53.130;18.104;2023-03-31T05:55:03;4.90;;;2.20;;
79493;SDS011;68951;53.130;18.104;2023-03-31T05:57:30;5.30;;;2.00;;
79493;SDS011;68951;53.130;18.104;2023-03-31T05:59:57;4.70;;;1.90;;
79493;SDS011;68951;53.130;18.104;2023-03-31T06:02:24;4.10;;;1.70;;
79493;SDS011;68951;53.130;18.104;2023-03-31T06:04:51;4.50;;;1.90;;
79493;SDS011;68951;53.130;18.104;2023-03-31T06:07:18;4.30;;;1.90;;
79493;SDS011;68951;53.130;18.104;2023-03-31T06:09:45;4.70;;;1.90;;
79493;SDS011;68951;53.130;18.104;2023-03-31T06:12:12;5.60;;;2.30;;
79493;SDS011;68951;53.130;18.104;2023-03-31T06:14:39;4.60;;;1.90;;
79493;SDS011;68951;53.130;18.104;2023-03-31T06:17:06;4.60;;;1.70;;
79493;SDS011;68951;53.130;18.104;2023-03-31T06:19:33;4.60;;;2.00;;
79493;SDS011;68951;53.130;18.104;2023-03-31T06:22:00;4.70;;;2.10;;
79493;SDS011;68951;53.130;18.104;2023-03-31T06:24:30;4.80;;;2.10;;
79493;SDS011;68951;53.130;18.104;2023-03-31T06:26:57;5.00;;;1.80;;
79493;SDS011;68951;53.130;18.104;2023-03-31T06:29:26;4.50;;;1.80;;
79493;SDS011;68951;53.130;18.104;2023-03-31T06:31:53;4.30;;;1.80;;
79493;SDS011;68951;53.130;18.104;2023-03-31T06:34:20;4.20;;;1.90;;
79493;SDS011;68951;53.130;18.104;2023-03-31T06:36:47;4.80;;;1.90;;
79493;SDS011;68951;53.130;18.104;2023-03-31T06:39:14;4.30;;;1.90;;
79493;SDS011;68951;53.130;18.104;2023-03-31T06:41:41;3.70;;;1.70;;
79493;SDS011;68951;53.130;18.104;2023-03-31T06:44:08;4.80;;;1.80;;
79493;SDS011;68951;53.130;18.104;2023-03-31T06:46:35;4.10;;;1.80;;
79493;SDS011;68951;53.130;18.104;2023-03-31T06:49:02;5.20;;;1.90;;
79493;SDS011;68951;53.130;18.104;2023-03-31T06:51:29;4.40;;;2.20;;
79493;SDS011;68951;53.130;18.104;2023-03-31T06:53:56;4.60;;;2.00;;
79493;SDS011;68951;53.130;18.104;2023-03-31T06:56:23;3.80;;;1.60;;
79493;SDS011;68951;53.130;18.104;2023-03-31T06:58:49;4.70;;;2.00;;
79493;SDS011;68951;53.130;18.104;2023-03-31T07:01:16;4.10;;;1.50;;
79493;SDS011;68951;53.130;18.104;2023-03-31T07:03:43;4.20;;;1.80;;
79493;SDS011;68951;53.130;18.104;2023-03-31T07:06:10;3.80;;;1.80;;
79493;SDS011;68951;53.130;18.104;2023-03-31T07:08:37;4.70;;;1.90;;
79493;SDS011;68951;53.130;18.104;2023-03-31T07:11:04;4.10;;;1.80;;
79493;SDS011;68951;53.130;18.104;2023-03-31T07:13:31;4.10;;;1.90;;
79493;SDS011;68951;53.130;18.104;2023-03-31T07:15:58;4.50;;;1.80;;
79493;SDS011;68951;53.130;18.104;2023-03-31T07:18:25;4.10;;;1.80;;
79493;SDS011;68951;53.130;18.104;2023-03-31T07:20:57;4.30;;;1.80;;
79493;SDS011;68951;53.130;18.104;2023-03-31T07:23:25;4.70;;;1.70;;
79493;SDS011;68951;53.130;18.104;2023-03-31T07:25:52;4.10;;;1.60;;
79493;SDS011;68951;53.130;18.104;2023-03-31T07:28:19;4.70;;;1.60;;
79493;SDS011;68951;53.130;18.104;2023-03-31T07:30:46;4.20;;;1.70;;
79493;SDS011;68951;53.130;18.104;2023-03-31T07:33:13;3.90;;;1.70;;
79493;SDS011;68951;53.130;18.104;2023-03-31T07:35:40;3.90;;;1.70;;
79493;SDS011;68951;53.130;18.104;2023-03-31T07:38:11;4.30;;;1.50;;
79493;SDS011;68951;53.130;18.104;2023-03-31T07:40:39;4.10;;;1.60;;
79493;SDS011;68951;53.130;18.104;2023-03-31T07:43:08;4.70;;;2.00;;
79493;SDS011;68951;53.130;18.104;2023-03-31T07:45:37;4.60;;;1.70;;
79493;SDS011;68951;53.130;18.104;2023-03-31T07:48:05;4.00;;;1.70;;
79493;SDS011;68951;53.130;18.104;2023-03-31T07:50:32;4.70;;;1.60;;
79493;SDS011;68951;53.130;18.104;2023-03-31T07:52:59;4.00;;;1.80;;
79493;SDS011;68951;53.130;18.104;2023-03-31T07:55:26;3.90;;;1.50;;
79493;SDS011;68951;53.130;18.104;2023-03-31T07:57:53;4.00;;;1.50;;
79493;SDS011;68951;53.130;18.104;2023-03-31T08:00:20;3.60;;;1.40;;
79493;SDS011;68951;53.130;18.104;2023-03-31T08:02:47;4.30;;;1.70;;
79493;SDS011;68951;53.130;18.104;2023-03-31T08:05:17;4.70;;;1.60;;
79493;SDS011;68951;53.130;18.104;2023-03-31T08:07:48;4.30;;;1.80;;
79493;SDS011;68951;53.130;18.104;2023-03-31T08:10:20;4.00;;;1.60;;
79493;SDS011;68951;53.130;18.104;2023-03-31T08:12:49;4.50;;;1.60;;
79493;SDS011;68951;53.130;18.104;2023-03-31T08:15:16;4.10;;;1.40;;
79493;SDS011;68951;53.130;18.104;2023-03-31T08:17:44;4.10;;;1.60;;
79493;SDS011;68951;53.130;18.104;2023-03-31T08:20:11;3.70;;;1.30;;
79493;SDS011;68951;53.130;18.104;2023-03-31T08:22:39;4.30;;;1.80;;
79493;SDS011;68951;53.130;18.104;2023-03-31T08:25:06;5.10;;;1.90;;
79493;SDS011;68951;53.130;18.104;2023-03-31T08:27:36;5.30;;;1.60;;
79493;SDS011;68951;53.130;18.104;2023-03-31T08:30:06;4.50;;;1.60;;
79493;SDS011;68951;53.130;18.104;2023-03-31T08:32:34;5.30;;;1.80;;
79493;SDS011;68951;53.130;18.104;2023-03-31T08:35:02;4.70;;;1.50;;
79493;SDS011;68951;53.130;18.104;2023-03-31T08:37:29;4.50;;;1.60;;
79493;SDS011;68951;53.130;18.104;2023-03-31T08:39:57;5.10;;;1.90;;
79493;SDS011;68951;53.130;18.104;2023-03-31T08:42:47;4.50;;;1.40;;
79493;SDS011;68951;53.130;18.104;2023-03-31T08:48:02;4.40;;;1.60;;
79493;SDS011;68951;53.130;18.104;2023-03-31T08:50:42;4.20;;;1.60;;
79493;SDS011;68951;53.130;18.104;2023-03-31T08:53:21;4.20;;;1.40;;
79493;SDS011;68951;53.130;18.104;2023-03-31T08:55:54;5.40;;;1.70;;
79493;SDS011;68951;53.130;18.104;2023-03-31T08:58:52;5.20;;;2.50;;
79493;SDS011;68951;53.130;18.104;2023-03-31T09:07:46;7.20;;;2.80;;
79493;SDS011;68951;53.130;18.104;2023-03-31T09:10:34;7.70;;;2.50;;
79493;SDS011;68951;53.130;18.104;2023-03-31T09:26:13;5.80;;;1.80;;
79493;SDS011;68951;53.130;18.104;2023-03-31T09:31:49;6.10;;;2.70;;
79493;SDS011;68951;53.130;18.104;2023-03-31T09:34:26;7.50;;;3.30;;
79493;SDS011;68951;53.130;18.104;2023-03-31T09:36:58;7.00;;;1.80;;
79493;SDS011;68951;53.130;18.104;2023-03-31T09:39:25;5.60;;;1.70;;
79493;SDS011;68951;53.130;18.104;2023-03-31T09:41:52;6.30;;;2.80;;
79493;SDS011;68951;53.130;18.104;2023-03-31T09:47:15;4.70;;;1.50;;
79493;SDS011;68951;53.130;18.104;2023-03-31T09:50:09;6.60;;;2.10;;
79493;SDS011;68951;53.130;18.104;2023-03-31T09:52:41;5.80;;;2.50;;
79493;SDS011;68951;53.130;18.104;2023-03-31T09:55:21;7.10;;;2.20;;
79493;SDS011;68951;53.130;18.104;2023-03-31T09:58:05;8.10;;;2.70;;
79493;SDS011;68951;53.130;18.104;2023-03-31T10:00:33;11.00;;;2.70;;
79493;SDS011;68951;53.130;18.104;2023-03-31T10:03:02;7.60;;;2.20;;
79493;SDS011;68951;53.130;18.104;2023-03-31T10:05:36;8.10;;;2.60;;
79493;SDS011;68951;53.130;18.104;2023-03-31T10:08:30;6.30;;;2.50;;
79493;SDS011;68951;53.130;18.104;2023-03-31T10:13:35;7.60;;;2.70;;
79493;SDS011;68951;53.130;18.104;2023-03-31T10:16:34;8.30;;;2.40;;
79493;SDS011;68951;53.130;18.104;2023-03-31T10:21:57;7.00;;;2.60;;
79493;SDS011;68951;53.130;18.104;2023-03-31T10:24:46;7.60;;;2.00;;
79493;SDS011;68951;53.130;18.104;2023-03-31T10:27:36;9.50;;;2.50;;
79493;SDS011;68951;53.130;18.104;2023-03-31T10:30:10;6.40;;;2.10;;
79493;SDS011;68951;53.130;18.104;2023-03-31T10:32:40;7.30;;;3.00;;
79493;SDS011;68951;53.130;18.104;2023-03-31T10:37:56;8.10;;;3.20;;
79493;SDS011;68951;53.130;18.104;2023-03-31T10:40:27;8.40;;;2.30;;
79493;SDS011;68951;53.130;18.104;2023-03-31T10:43:13;8.60;;;2.70;;
79493;SDS011;68951;53.130;18.104;2023-03-31T10:45:49;8.40;;;2.50;;
79493;SDS011;68951;53.130;18.104;2023-03-31T10:48:24;7.10;;;2.50;;
79493;SDS011;68951;53.130;18.104;2023-03-31T10:50:54;9.00;;;2.20;;
79493;SDS011;68951;53.130;18.104;2023-03-31T10:53:25;7.10;;;2.30;;
79493;SDS011;68951;53.130;18.104;2023-03-31T11:04:36;8.20;;;1.50;;
79493;SDS011;68951;53.130;18.104;2023-03-31T11:10:25;6.10;;;1.80;;
79493;SDS011;68951;53.130;18.104;2023-03-31T11:22:24;5.40;;;1.60;;
79493;SDS011;68951;53.130;18.104;2023-03-31T11:35:53;8.10;;;1.80;;
79493;SDS011;68951;53.130;18.104;2023-03-31T11:41:15;7.90;;;2.50;;
79493;SDS011;68951;53.130;18.104;2023-03-31T11:44:09;7.20;;;2.50;;
79493;SDS011;68951;53.130;18.104;2023-03-31T11:47:00;7.20;;;2.40;;
79493;SDS011;68951;53.130;18.104;2023-03-31T11:49:29;7.60;;;2.10;;
79493;SDS011;68951;53.130;18.104;2023-03-31T11:52:14;9.30;;;2.60;;
79493;SDS011;68951;53.130;18.104;2023-03-31T11:55:16;8.30;;;2.50;;
79493;SDS011;68951;53.130;18.104;2023-03-31T11:57:58;7.00;;;2.10;;
79493;SDS011;68951;53.130;18.104;2023-03-31T12:00:35;3.80;;;1.00;;
79493;SDS011;68951;53.130;18.104;2023-03-31T12:03:17;8.30;;;2.50;;
79493;SDS011;68951;53.130;18.104;2023-03-31T12:06:12;8.90;;;2.20;;
79493;SDS011;68951;53.130;18.104;2023-03-31T12:11:45;7.60;;;2.40;;
79493;SDS011;68951;53.130;18.104;2023-03-31T12:14:53;6.10;;;2.00;;
79493;SDS011;68951;53.130;18.104;2023-03-31T12:17:28;6.80;;;2.30;;
79493;SDS011;68951;53.130;18.104;2023-03-31T12:20:05;5.70;;;1.90;;
79493;SDS011;68951;53.130;18.104;2023-03-31T12:22:44;8.20;;;2.50;;
79493;SDS011;68951;53.130;18.104;2023-03-31T12:25:15;7.10;;;2.00;;
79493;SDS011;68951;53.130;18.104;2023-03-31T12:27:48;11.00;;;3.80;;
79493;SDS011;68951;53.130;18.104;2023-03-31T12:30:40;5.20;;;1.20;;
79493;SDS011;68951;53.130;18.104;2023-03-31T12:33:20;8.40;;;2.00;;
79493;SDS011;68951;53.130;18.104;2023-03-31T12:41:35;15.30;;;3.40;;
79493;SDS011;68951;53.130;18.104;2023-03-31T12:53:18;6.90;;;2.10;;
79493;SDS011;68951;53.130;18.104;2023-03-31T12:55:57;6.30;;;1.60;;
79493;SDS011;68951;53.130;18.104;2023-03-31T13:01:07;6.10;;;1.60;;
79493;SDS011;68951;53.130;18.104;2023-03-31T13:09:41;4.70;;;1.80;;
79493;SDS011;68951;53.130;18.104;2023-03-31T13:12:15;7.60;;;2.10;;
79493;SDS011;68951;53.130;18.104;2023-03-31T13:14:46;5.60;;;1.50;;
79493;SDS011;68951;53.130;18.104;2023-03-31T13:17:26;4.80;;;1.40;;
79493;SDS011;68951;53.130;18.104;2023-03-31T13:20:15;7.70;;;2.40;;
79493;SDS011;68951;53.130;18.104;2023-03-31T13:22:59;7.30;;;2.10;;
79493;SDS011;68951;53.130;18.104;2023-03-31T13:30:45;9.10;;;3.50;;
79493;SDS011;68951;53.130;18.104;2023-03-31T14:05:54;10.60;;;4.80;;
79493;SDS011;68951;53.130;18.104;2023-03-31T14:11:29;11.30;;;5.00;;
79493;SDS011;68951;53.130;18.104;2023-03-31T14:14:18;10.00;;;5.10;;
79493;SDS011;68951;53.130;18.104;2023-03-31T14:16:48;8.50;;;4.40;;
79493;SDS011;68951;53.130;18.104;2023-03-31T14:29:12;9.40;;;5.40;;
79493;SDS011;68951;53.130;18.104;2023-03-31T14:31:56;8.20;;;4.90;;
79493;SDS011;68951;53.130;18.104;2023-03-31T14:34:41;10.20;;;4.80;;
79493;SDS011;68951;53.130;18.104;2023-03-31T14:37:22;9.70;;;4.30;;
79493;SDS011;68951;53.130;18.104;2023-03-31T14:39:51;12.50;;;5.10;;
79493;SDS011;68951;53.130;18.104;2023-03-31T14:42:28;10.00;;;4.90;;
79493;SDS011;68951;53.130;18.104;2023-03-31T14:45:15;12.00;;;4.60;;
79493;SDS011;68951;53.130;18.104;2023-03-31T14:48:01;12.20;;;5.00;;
79493;SDS011;68951;53.130;18.104;2023-03-31T14:50:35;12.30;;;4.90;;
79493;SDS011;68951;53.130;18.104;2023-03-31T14:53:03;11.10;;;4.50;;
79493;SDS011;68951;53.130;18.104;2023-03-31T14:55:39;11.50;;;5.00;;
79493;SDS011;68951;53.130;18.104;2023-03-31T14:58:10;12.00;;;4.30;;
79493;SDS011;68951;53.130;18.104;2023-03-31T15:00:41;10.50;;;3.80;;
79493;SDS011;68951;53.130;18.104;2023-03-31T15:03:12;10.50;;;4.40;;
79493;SDS011;68951;53.130;18.104;2023-03-31T15:05:42;11.20;;;4.20;;
79493;SDS011;68951;53.130;18.104;2023-03-31T15:08:17;12.40;;;5.50;;
79493;SDS011;68951;53.130;18.104;2023-03-31T15:10:54;11.10;;;5.20;;
79493;SDS011;68951;53.130;18.104;2023-03-31T15:13:36;7.90;;;3.00;;
79493;SDS011;68951;53.130;18.104;2023-03-31T15:16:34;5.40;;;1.80;;
79493;SDS011;68951;53.130;18.104;2023-03-31T15:19:09;6.10;;;1.90;;
79493;SDS011;68951;53.130;18.104;2023-03-31T15:21:39;6.40;;;1.70;;
79493;SDS011;68951;53.130;18.104;2023-03-31T15:24:09;6.70;;;1.80;;
79493;SDS011;68951;53.130;18.104;2023-03-31T15:27:02;7.10;;;2.20;;
79493;SDS011;68951;53.130;18.104;2023-03-31T15:29:48;6.40;;;1.70;;
79493;SDS011;68951;53.130;18.104;2023-03-31T15:32:24;4.90;;;0.90;;
79493;SDS011;68951;53.130;18.104;2023-03-31T15:34:53;7.00;;;1.90;;
79493;SDS011;68951;53.130;18.104;2023-03-31T15:37:28;5.50;;;1.40;;
79493;SDS011;68951;53.130;18.104;2023-03-31T15:40:00;6.00;;;1.80;;
79493;SDS011;68951;53.130;18.104;2023-03-31T15:42:33;6.20;;;2.10;;
79493;SDS011;68951;53.130;18.104;2023-03-31T15:48:04;4.70;;;2.10;;
79493;SDS011;68951;53.130;18.104;2023-03-31T15:50:41;5.10;;;2.40;;
79493;SDS011;68951;53.130;18.104;2023-03-31T15:53:35;6.40;;;2.60;;
79493;SDS011;68951;53.130;18.104;2023-03-31T15:56:04;6.00;;;2.40;;
79493;SDS011;68951;53.130;18.104;2023-03-31T15:59:27;6.80;;;2.80;;
79493;SDS011;68951;53.130;18.104;2023-03-31T16:01:56;6.20;;;2.90;;
79493;SDS011;68951;53.130;18.104;2023-03-31T16:04:30;9.00;;;4.40;;
79493;SDS011;68951;53.130;18.104;2023-03-31T16:07:04;7.40;;;4.60;;
79493;SDS011;68951;53.130;18.104;2023-03-31T16:12:03;8.80;;;4.10;;
79493;SDS011;68951;53.130;18.104;2023-03-31T16:14:57;7.10;;;3.90;;
79493;SDS011;68951;53.130;18.104;2023-03-31T16:17:50;7.60;;;2.90;;
79493;SDS011;68951;53.130;18.104;2023-03-31T16:20:23;7.50;;;3.20;;
79493;SDS011;68951;53.130;18.104;2023-03-31T16:34:10;9.70;;;4.50;;
79493;SDS011;68951;53.130;18.104;2023-03-31T16:36:37;10.40;;;4.30;;
79493;SDS011;68951;53.130;18.104;2023-03-31T16:39:05;11.00;;;5.10;;
79493;SDS011;68951;53.130;18.104;2023-03-31T16:41:35;9.10;;;4.70;;
79493;SDS011;68951;53.130;18.104;2023-03-31T16:44:03;9.90;;;4.50;;
79493;SDS011;68951;53.130;18.104;2023-03-31T16:46:32;9.60;;;5.20;;
79493;SDS011;68951;53.130;18.104;2023-03-31T16:48:59;8.80;;;4.10;;
79493;SDS011;68951;53.130;18.104;2023-03-31T16:51:26;8.80;;;4.60;;
79493;SDS011;68951;53.130;18.104;2023-03-31T16:53:53;7.70;;;4.60;;
79493;SDS011;68951;53.130;18.104;2023-03-31T16:56:22;11.70;;;4.60;;
79493;SDS011;68951;53.130;18.104;2023-03-31T16:58:49;9.90;;;4.10;;
79493;SDS011;68951;53.130;18.104;2023-03-31T17:01:17;8.90;;;4.20;;
79493;SDS011;68951;53.130;18.104;2023-03-31T17:03:46;7.70;;;3.70;;
79493;SDS011;68951;53.130;18.104;2023-03-31T17:06:14;8.70;;;4.30;;
79493;SDS011;68951;53.130;18.104;2023-03-31T17:08:41;10.00;;;5.20;;
79493;SDS011;68951;53.130;18.104;2023-03-31T17:11:10;11.30;;;5.00;;
79493;SDS011;68951;53.130;18.104;2023-03-31T17:13:40;13.80;;;5.20;;
79493;SDS011;68951;53.130;18.104;2023-03-31T17:16:10;13.70;;;6.50;;
79493;SDS011;68951;53.130;18.104;2023-03-31T17:18:37;16.70;;;8.30;;
79493;SDS011;68951;53.130;18.104;2023-03-31T17:21:07;14.30;;;7.20;;
79493;SDS011;68951;53.130;18.104;2023-03-31T17:23:37;15.20;;;7.30;;
79493;SDS011;68951;53.130;18.104;2023-03-31T17:26:06;13.80;;;6.90;;
79493;SDS011;68951;53.130;18.104;2023-03-31T17:28:35;13.60;;;7.50;;
79493;SDS011;68951;53.130;18.104;2023-03-31T17:31:13;13.70;;;6.50;;
79493;SDS011;68951;53.130;18.104;2023-03-31T17:33:41;12.50;;;7.00;;
79493;SDS011;68951;53.130;18.104;2023-03-31T17:36:10;14.30;;;7.50;;
79493;SDS011;68951;53.130;18.104;2023-03-31T17:38:38;13.90;;;7.40;;
79493;SDS011;68951;53.130;18.104;2023-03-31T17:41:10;13.30;;;7.50;;
79493;SDS011;68951;53.130;18.104;2023-03-31T17:43:38;14.10;;;7.80;;
79493;SDS011;68951;53.130;18.104;2023-03-31T17:46:08;16.10;;;8.10;;
79493;SDS011;68951;53.130;18.104;2023-03-31T17:48:36;14.20;;;7.50;;
79493;SDS011;68951;53.130;18.104;2023-03-31T17:51:06;16.30;;;8.00;;
79493;SDS011;68951;53.130;18.104;2023-03-31T17:53:42;16.70;;;8.00;;
79493;SDS011;68951;53.130;18.104;2023-03-31T17:56:11;16.50;;;8.20;;
79493;SDS011;68951;53.130;18.104;2023-03-31T17:58:39;14.80;;;8.10;;
79493;SDS011;68951;53.130;18.104;2023-03-31T18:01:07;12.60;;;6.80;;
79493;SDS011;68951;53.130;18.104;2023-03-31T18:03:36;16.50;;;7.60;;
79493;SDS011;68951;53.130;18.104;2023-03-31T18:06:06;13.30;;;7.50;;
79493;SDS011;68951;53.130;18.104;2023-03-31T18:08:37;10.30;;;5.70;;
79493;SDS011;68951;53.130;18.104;2023-03-31T18:11:07;9.40;;;5.40;;
79493;SDS011;68951;53.130;18.104;2023-03-31T18:13:35;10.90;;;5.70;;
79493;SDS011;68951;53.130;18.104;2023-03-31T18:16:05;14.60;;;6.20;;
79493;SDS011;68951;53.130;18.104;2023-03-31T18:18:39;8.50;;;3.40;;
79493;SDS011;68951;53.130;18.104;2023-03-31T18:21:08;9.40;;;4.60;;
79493;SDS011;68951;53.130;18.104;2023-03-31T18:23:37;10.30;;;4.80;;
79493;SDS011;68951;53.130;18.104;2023-03-31T18:26:10;6.20;;;2.90;;
79493;SDS011;68951;53.130;18.104;2023-03-31T18:28:38;9.90;;;3.30;;
79493;SDS011;68951;53.130;18.104;2023-03-31T18:31:07;6.90;;;2.70;;
79493;SDS011;68951;53.130;18.104;2023-03-31T18:33:35;7.20;;;2.40;;
79493;SDS011;68951;53.130;18.104;2023-03-31T18:36:03;7.70;;;3.00;;
79493;SDS011;68951;53.130;18.104;2023-03-31T18:38:32;4.70;;;2.10;;
79493;SDS011;68951;53.130;18.104;2023-03-31T18:41:01;7.50;;;2.10;;